Time;durP1;ratioP1;P1;durP2;ratioP2;P2;SDS_P1;SDS_P2;PMS_P1;PMS_P2;Temp;Humidity;BMP_temperature;BMP_pressure;BME280_temperature;BME280_humidity;BME280_pressure;Samples;Min_cycle;Max_cycle;Signal;HPM_P1;HPM_P2
2022/09/26 00:01:41;;;;;;;7.60;6.83;;;14.10;99.90;;;;;;5033287;28;20216;-70
2022/09/26 00:04:17;;;;;;;8.10;7.30;;;14.10;99.90;;;;;;5033893;28;20618;-69
2022/09/26 00:06:43;;;;;;;11.60;6.60;;;14.10;99.90;;;;;;5033088;28;20909;-69
2022/09/26 00:09:09;;;;;;;7.57;6.60;;;14.00;99.90;;;;;;5033618;28;20397;-70
2022/09/26 00:11:34;;;;;;;7.90;7.20;;;14.00;99.90;;;;;;5031589;28;20736;-70
2022/09/26 00:14:03;;;;;;;8.63;7.20;;;14.10;99.90;;;;;;5033388;28;20436;-70
2022/09/26 00:16:30;;;;;;;7.97;7.17;;;14.00;99.90;;;;;;5033413;28;20180;-70
2022/09/26 00:18:57;;;;;;;10.80;7.10;;;13.90;99.90;;;;;;5033331;28;20392;-70
2022/09/26 00:21:24;;;;;;;10.80;7.27;;;13.90;99.90;;;;;;5033488;28;20398;-70
2022/09/26 00:23:50;;;;;;;8.63;7.73;;;13.80;99.90;;;;;;5032923;28;20957;-70
2022/09/26 00:26:18;;;;;;;10.27;7.30;;;13.70;99.90;;;;;;5032571;28;20445;-70
2022/09/26 00:28:44;;;;;;;7.17;6.57;;;13.70;99.90;;;;;;5033260;28;20490;-70
2022/09/26 00:31:20;;;;;;;9.30;7.53;;;13.60;99.90;;;;;;5033115;28;20446;-70
2022/09/26 00:33:46;;;;;;;13.50;9.33;;;13.50;99.90;;;;;;5033526;28;20550;-70
2022/09/26 00:36:11;;;;;;;8.77;6.60;;;13.50;99.90;;;;;;5033585;28;20406;-70
2022/09/26 00:38:37;;;;;;;9.63;8.63;;;13.50;99.90;;;;;;5032486;28;20177;-71
2022/09/26 00:41:03;;;;;;;8.43;6.23;;;13.50;99.90;;;;;;5033007;28;20229;-70
2022/09/26 00:43:41;;;;;;;8.80;7.90;;;13.40;99.90;;;;;;5033374;28;20496;-70
2022/09/26 00:46:32;;;;;;;9.63;8.63;;;13.30;99.90;;;;;;5033407;28;20438;-70
2022/09/26 00:49:01;;;;;;;7.90;7.10;;;13.30;99.90;;;;;;5032182;28;20538;-70
2022/09/26 00:51:27;;;;;;;8.50;7.60;;;13.20;99.90;;;;;;5032682;28;20410;-69
2022/09/26 00:53:54;;;;;;;11.30;7.87;;;13.20;99.90;;;;;;5032569;28;20394;-70
2022/09/26 00:56:32;;;;;;;9.17;7.63;;;13.00;99.90;;;;;;5032999;28;20447;-70
2022/09/26 00:59:12;;;;;;;8.93;6.97;;;13.00;99.90;;;;;;5032558;28;20398;-70
2022/09/26 01:01:37;;;;;;;9.17;8.37;;;13.00;99.90;;;;;;5032609;28;20799;-70
2022/09/26 01:04:05;;;;;;;8.70;6.90;;;12.90;99.90;;;;;;5032582;28;20407;-70
2022/09/26 01:06:31;;;;;;;8.37;7.27;;;12.80;99.90;;;;;;5032434;28;20194;-70
2022/09/26 01:09:00;;;;;;;8.13;7.33;;;12.70;99.90;;;;;;5033173;28;20426;-70
2022/09/26 01:11:28;;;;;;;8.80;7.90;;;12.70;99.90;;;;;;5035616;28;20422;-70
2022/09/26 01:13:55;;;;;;;9.30;8.40;;;12.60;99.90;;;;;;5036404;28;20441;-70
2022/09/26 01:16:21;;;;;;;9.97;7.70;;;12.60;99.90;;;;;;5036532;28;20772;-70
2022/09/26 01:18:47;;;;;;;9.53;8.53;;;12.50;99.90;;;;;;5035539;28;20474;-70
2022/09/26 01:21:50;;;;;;;9.83;8.83;;;12.50;99.90;;;;;;5036107;28;20202;-70
2022/09/26 01:24:38;;;;;;;9.70;8.03;;;12.40;99.90;;;;;;5036804;28;20636;-70
2022/09/26 01:27:28;;;;;;;10.07;7.87;;;12.40;99.90;;;;;;5035738;28;20431;-70
2022/09/26 01:30:05;;;;;;;10.23;8.27;;;12.40;99.90;;;;;;5036537;28;20886;-70
2022/09/26 01:32:48;;;;;;;10.90;8.07;;;12.30;99.90;;;;;;5036179;28;20550;-69
2022/09/26 01:35:44;;;;;;;8.03;6.90;;;12.30;99.90;;;;;;5036473;28;20378;-70
2022/09/26 01:38:34;;;;;;;9.50;7.87;;;12.10;99.90;;;;;;5034761;28;20480;-70
2022/09/26 01:41:42;;;;;;;8.60;7.73;;;12.10;99.90;;;;;;5035024;28;20819;-70
2022/09/26 01:44:22;;;;;;;8.97;8.07;;;12.10;99.90;;;;;;5027648;28;20761;-70
2022/09/26 01:46:54;;;;;;;9.33;7.47;;;12.10;99.90;;;;;;5036287;28;20802;-70
2022/09/26 01:49:42;;;;;;;11.87;8.70;;;12.00;99.90;;;;;;5036022;28;20380;-70
2022/09/26 01:52:24;;;;;;;8.50;7.70;;;12.10;99.90;;;;;;5068432;22;20585;-69
2022/09/26 01:54:54;;;;;;;10.37;9.07;;;12.10;99.90;;;;;;5072017;28;20409;-70
2022/09/26 01:57:28;;;;;;;9.50;8.50;;;12.10;99.90;;;;;;5075409;28;20403;-69
2022/09/26 01:59:59;;;;;;;7.57;6.90;;;12.20;99.90;;;;;;5075865;28;20551;-70
2022/09/26 02:02:30;;;;;;;8.60;7.70;;;12.20;99.90;;;;;;5083769;28;20411;-69
2022/09/26 02:05:18;;;;;;;12.13;7.90;;;12.20;99.90;;;;;;5095846;28;20484;-70
2022/09/26 02:07:58;;;;;;;7.63;6.93;;;12.30;99.90;;;;;;5095246;28;20503;-70
2022/09/26 02:10:33;;;;;;;8.17;7.37;;;12.20;99.90;;;;;;5096025;28;20889;-70
2022/09/26 02:13:07;;;;;;;8.83;7.07;;;12.30;99.90;;;;;;5074175;28;20450;-69
2022/09/26 02:15:35;;;;;;;8.83;8.03;;;12.40;99.90;;;;;;5074122;28;20412;-69
2022/09/26 02:18:11;;;;;;;10.20;7.90;;;12.40;99.90;;;;;;5074881;28;20408;-69
2022/09/26 02:20:39;;;;;;;7.37;6.67;;;12.40;99.90;;;;;;5073716;28;20421;-68
2022/09/26 02:23:05;;;;;;;6.57;6.00;;;12.50;99.90;;;;;;5075160;28;20519;-69
2022/09/26 02:25:31;;;;;;;9.63;7.50;;;12.50;99.90;;;;;;5075248;28;20522;-69
2022/09/26 02:27:57;;;;;;;7.70;7.00;;;12.50;99.90;;;;;;5074697;28;20166;-69
2022/09/26 02:30:23;;;;;;;7.90;7.13;;;12.60;99.90;;;;;;5075047;28;20419;-69
2022/09/26 02:32:48;;;;;;;9.10;7.43;;;12.60;99.90;;;;;;5075047;28;20663;-69
2022/09/26 02:37:59;;;;;;;7.37;6.60;;;12.60;99.90;;;;;;5075627;28;20188;-69
2022/09/26 02:40:37;;;;;;;7.63;6.80;;;12.60;99.90;;;;;;5074955;28;20404;-69
2022/09/26 02:43:31;;;;;;;8.20;7.33;;;12.60;99.90;;;;;;5074353;28;20193;-69
2022/09/26 02:46:20;;;;;;;10.97;8.90;;;12.50;99.90;;;;;;5074615;28;20435;-69
2022/09/26 02:49:01;;;;;;;7.70;6.87;;;12.60;99.90;;;;;;5074673;28;20403;-69
2022/09/26 02:51:54;;;;;;;7.00;6.37;;;12.60;99.90;;;;;;5074717;28;20404;-69
2022/09/26 02:54:40;;;;;;;6.33;5.83;;;12.60;99.90;;;;;;5074990;28;20385;-69
2022/09/26 02:57:31;;;;;;;6.93;6.17;;;12.50;99.90;;;;;;5073949;28;20436;-69
2022/09/26 03:00:02;;;;;;;5.63;5.13;;;12.50;99.90;;;;;;5074733;28;20741;-69
2022/09/26 03:02:34;;;;;;;6.30;5.70;;;12.40;99.90;;;;;;5074656;28;20411;-69
2022/09/26 03:05:07;;;;;;;6.97;5.80;;;12.40;99.90;;;;;;5074976;28;20457;-69
2022/09/26 03:07:42;;;;;;;7.70;6.27;;;12.40;99.90;;;;;;5075403;28;20475;-69
2022/09/26 03:10:10;;;;;;;6.83;6.23;;;12.50;99.90;;;;;;5074887;28;20962;-69
2022/09/26 03:12:38;;;;;;;7.30;6.10;;;12.60;99.90;;;;;;5072920;28;20432;-69
2022/09/26 03:15:06;;;;;;;7.13;5.70;;;12.60;99.90;;;;;;5074213;28;20404;-69
2022/09/26 03:17:34;;;;;;;7.63;6.83;;;12.60;99.90;;;;;;5074105;28;20430;-69
2022/09/26 03:20:13;;;;;;;7.40;5.70;;;12.60;99.90;;;;;;5074236;28;20412;-69
2022/09/26 03:22:41;;;;;;;6.53;5.93;;;12.50;99.90;;;;;;5074117;28;20419;-69
2022/09/26 03:25:09;;;;;;;5.80;5.20;;;12.50;99.90;;;;;;5073359;28;20452;-69
2022/09/26 03:27:37;;;;;;;5.40;4.90;;;12.50;99.90;;;;;;5073357;28;20400;-69
2022/09/26 03:30:04;;;;;;;5.30;4.80;;;12.50;99.90;;;;;;5073963;28;20405;-69
2022/09/26 03:32:31;;;;;;;8.37;6.17;;;12.50;99.90;;;;;;5073321;28;20452;-69
2022/09/26 03:34:56;;;;;;;8.60;5.90;;;12.50;99.90;;;;;;5073790;28;20409;-69
2022/09/26 03:37:22;;;;;;;6.80;5.80;;;12.50;99.90;;;;;;5073860;28;20470;-69
2022/09/26 03:39:48;;;;;;;5.90;4.77;;;12.50;99.90;;;;;;5074029;28;20166;-69
2022/09/26 03:42:14;;;;;;;5.00;4.50;;;12.50;99.90;;;;;;5072995;28;20193;-69
2022/09/26 03:44:40;;;;;;;5.53;4.37;;;12.50;99.90;;;;;;5073641;28;20544;-69
2022/09/26 03:47:06;;;;;;;6.10;4.80;;;12.50;99.90;;;;;;5073686;28;20401;-69
2022/09/26 03:49:31;;;;;;;6.10;3.90;;;12.40;99.90;;;;;;5073463;28;20257;-69
2022/09/26 03:51:57;;;;;;;5.73;4.00;;;12.50;99.90;;;;;;5073325;28;20194;-69
2022/09/26 03:54:22;;;;;;;4.83;4.43;;;12.50;99.90;;;;;;5073326;28;20169;-69
2022/09/26 03:56:48;;;;;;;8.03;4.37;;;12.60;99.90;;;;;;5072722;28;20162;-68
2022/09/26 03:59:14;;;;;;;6.23;5.13;;;12.60;99.90;;;;;;5073151;28;20198;-69
2022/09/26 04:01:40;;;;;;;8.33;5.00;;;12.60;99.90;;;;;;5073110;28;20632;-69
2022/09/26 04:04:06;;;;;;;5.50;3.90;;;12.50;99.90;;;;;;5073475;28;20485;-69
2022/09/26 04:06:31;;;;;;;4.00;3.43;;;12.40;99.90;;;;;;5073068;28;20447;-69
2022/09/26 04:08:57;;;;;;;6.40;5.10;;;12.40;99.90;;;;;;5073062;28;20176;-69
2022/09/26 04:11:23;;;;;;;6.20;3.80;;;12.40;99.90;;;;;;5072035;28;20169;-69
2022/09/26 04:13:49;;;;;;;5.37;3.90;;;12.40;99.90;;;;;;5071095;28;20178;-69
2022/09/26 04:16:14;;;;;;;6.67;4.20;;;12.40;99.90;;;;;;5073113;28;20408;-69
2022/09/26 04:18:40;;;;;;;3.90;3.50;;;12.30;99.90;;;;;;5072810;28;20173;-69
2022/09/26 04:21:08;;;;;;;5.07;4.10;;;12.30;99.90;;;;;;5072627;28;20662;-69
2022/09/26 04:23:36;;;;;;;3.77;3.47;;;12.20;99.90;;;;;;5071479;28;20226;-69
2022/09/26 04:26:07;;;;;;;5.07;4.17;;;12.20;99.90;;;;;;5073085;28;20948;-69
2022/09/26 04:28:34;;;;;;;6.30;4.70;;;12.10;99.90;;;;;;5072728;28;20793;-69
2022/09/26 04:31:01;;;;;;;7.67;4.70;;;12.00;99.90;;;;;;5072604;28;20445;-69
2022/09/26 04:33:28;;;;;;;4.67;4.27;;;12.00;99.90;;;;;;5072602;28;20887;-69
2022/09/26 04:35:54;;;;;;;5.43;4.00;;;11.90;99.90;;;;;;5072613;28;20454;-69
2022/09/26 04:38:19;;;;;;;5.20;4.57;;;11.90;99.90;;;;;;5072351;28;20426;-69
2022/09/26 04:40:45;;;;;;;5.40;4.43;;;11.70;99.90;;;;;;5068918;28;20176;-69
2022/09/26 04:43:11;;;;;;;5.00;4.40;;;11.80;99.90;;;;;;5070810;28;20236;-69
2022/09/26 04:45:41;;;;;;;4.43;4.03;;;11.70;99.90;;;;;;5076627;28;20208;-69
2022/09/26 04:48:09;;;;;;;4.73;4.10;;;11.70;99.90;;;;;;5076838;28;20418;-69
2022/09/26 04:50:34;;;;;;;5.27;4.77;;;11.80;99.90;;;;;;5072289;28;20404;-69
2022/09/26 04:53:00;;;;;;;5.50;4.60;;;11.90;99.90;;;;;;5071612;28;20524;-68
2022/09/26 04:55:26;;;;;;;4.93;4.20;;;11.90;99.90;;;;;;5070402;28;20547;-68
2022/09/26 04:57:52;;;;;;;5.73;5.23;;;11.80;99.90;;;;;;5072887;28;20478;-69
2022/09/26 05:00:17;;;;;;;7.03;5.33;;;11.70;99.90;;;;;;5071419;28;20617;-68
2022/09/26 05:02:46;;;;;;;7.50;5.93;;;11.70;99.90;;;;;;5072356;28;20236;-68
2022/09/26 05:05:12;;;;;;;4.73;4.27;;;11.70;99.90;;;;;;5071126;28;20613;-68
2022/09/26 05:07:39;;;;;;;6.07;5.33;;;11.70;99.90;;;;;;5067695;28;20949;-68
2022/09/26 05:10:06;;;;;;;7.23;4.90;;;11.70;99.90;;;;;;5063307;28;20464;-69
2022/09/26 05:12:31;;;;;;;6.23;5.20;;;11.80;99.90;;;;;;5044427;28;20442;-68
2022/09/26 05:14:57;;;;;;;11.47;5.80;;;11.70;99.90;;;;;;5056879;28;20430;-69
2022/09/26 05:17:23;;;;;;;5.80;5.30;;;11.70;99.90;;;;;;5069877;28;20178;-69
2022/09/26 05:19:48;;;;;;;8.07;5.00;;;11.50;99.90;;;;;;5072053;28;20170;-69
2022/09/26 05:22:14;;;;;;;5.40;4.90;;;11.50;99.90;;;;;;5069414;28;20194;-69
2022/09/26 05:27:23;;;;;;;4.57;3.63;;;11.40;99.90;;;;;;5072280;28;20193;-68
2022/09/26 05:29:51;;;;;;;6.43;3.70;;;11.40;99.90;;;;;;5071960;28;20449;-68
2022/09/26 05:32:19;;;;;;;6.07;4.50;;;11.50;99.90;;;;;;5071929;28;20730;-69
2022/09/26 05:34:47;;;;;;;3.93;3.60;;;11.50;99.90;;;;;;5071909;28;20778;-69
2022/09/26 05:37:13;;;;;;;3.87;3.57;;;11.60;99.90;;;;;;5071474;28;21045;-69
2022/09/26 05:42:23;;;;;;;5.23;3.97;;;11.60;99.90;;;;;;5072124;28;20324;-69
2022/09/26 05:44:49;;;;;;;5.57;4.13;;;11.60;99.90;;;;;;5070684;28;20543;-69
2022/09/26 05:47:15;;;;;;;7.10;4.73;;;11.60;99.90;;;;;;5070602;28;20197;-69
2022/09/26 05:49:41;;;;;;;6.40;4.00;;;11.70;99.90;;;;;;5072598;28;20411;-69
2022/09/26 05:52:06;;;;;;;4.73;4.30;;;11.70;99.90;;;;;;5071615;28;20452;-69
2022/09/26 05:54:32;;;;;;;9.00;4.70;;;11.70;99.90;;;;;;5072484;28;20159;-69
2022/09/26 05:56:57;;;;;;;5.33;4.70;;;11.70;99.90;;;;;;5075396;28;20155;-69
2022/09/26 05:59:23;;;;;;;5.43;4.43;;;11.70;99.90;;;;;;5074348;28;20197;-68
2022/09/26 06:01:48;;;;;;;6.60;5.40;;;11.80;99.90;;;;;;5074237;28;20188;-68
2022/09/26 06:04:14;;;;;;;9.97;4.87;;;11.90;99.90;;;;;;5075539;28;20666;-69
2022/09/26 06:06:41;;;;;;;10.43;9.43;;;12.00;99.90;;;;;;5074605;28;20272;-69
2022/09/26 06:09:06;;;;;;;172.47;125.00;;;12.10;99.90;;;;;;5076641;28;20169;-70
2022/09/26 06:11:32;;;;;;;29.50;24.73;;;12.10;99.90;;;;;;5075087;28;20832;-69
2022/09/26 06:14:01;;;;;;;10.20;8.17;;;12.20;99.90;;;;;;5073708;28;20196;-69
2022/09/26 06:16:27;;;;;;;5.37;4.97;;;12.40;99.90;;;;;;5075039;28;20172;-69
2022/09/26 06:18:54;;;;;;;6.77;4.60;;;12.50;99.90;;;;;;5075011;28;20416;-69
2022/09/26 06:21:20;;;;;;;6.80;4.83;;;12.60;99.90;;;;;;5074442;28;20412;-69
2022/09/26 06:23:46;;;;;;;3.63;3.33;;;12.70;99.90;;;;;;5072975;28;20773;-68
2022/09/26 06:26:17;;;;;;;6.97;4.00;;;12.80;99.90;;;;;;5075419;28;20458;-69
2022/09/26 06:28:43;;;;;;;4.13;3.37;;;12.70;99.90;;;;;;5075129;28;20150;-70
2022/09/26 06:31:10;;;;;;;4.20;3.80;;;12.70;99.90;;;;;;5075111;28;20415;-70
2022/09/26 06:33:35;;;;;;;3.83;3.40;;;13.00;99.90;;;;;;5075138;28;20185;-71
2022/09/26 06:36:03;;;;;;;4.80;3.93;;;13.10;99.90;;;;;;5075186;28;20778;-69
2022/09/26 06:38:29;;;;;;;6.53;4.20;;;13.20;99.90;;;;;;5074528;28;20539;-69
2022/09/26 06:40:55;;;;;;;3.87;3.53;;;13.30;99.90;;;;;;5074834;28;20459;-69
2022/09/26 06:43:21;;;;;;;5.03;3.70;;;13.40;99.90;;;;;;5074982;28;20183;-69
2022/09/26 06:45:50;;;;;;;3.50;3.20;;;13.60;99.90;;;;;;5074679;28;20240;-69
2022/09/26 06:48:16;;;;;;;6.37;4.57;;;13.70;99.90;;;;;;5074339;28;20454;-69
2022/09/26 06:50:43;;;;;;;3.50;3.20;;;13.70;99.90;;;;;;5073193;28;20819;-70
2022/09/26 06:53:08;;;;;;;5.57;3.50;;;13.80;99.90;;;;;;5073722;28;20470;-69
2022/09/26 06:55:34;;;;;;;4.27;3.87;;;13.90;99.90;;;;;;5074338;28;20407;-69
2022/09/26 06:57:59;;;;;;;3.90;3.53;;;14.00;99.90;;;;;;5074503;28;20183;-69
2022/09/26 07:00:28;;;;;;;4.10;3.70;;;14.00;99.90;;;;;;5074073;28;20625;-69
2022/09/26 07:02:55;;;;;;;3.90;3.30;;;14.00;99.90;;;;;;5074370;28;20193;-69
2022/09/26 07:05:22;;;;;;;6.77;3.93;;;14.00;99.90;;;;;;5074272;28;20518;-69
2022/09/26 07:07:48;;;;;;;3.97;3.67;;;14.10;99.90;;;;;;5072550;28;20422;-69
2022/09/26 07:10:17;;;;;;;3.60;3.30;;;14.10;99.90;;;;;;5074118;28;20428;-69
2022/09/26 07:12:46;;;;;;;3.93;3.63;;;14.20;99.90;;;;;;5074025;28;20534;-69
2022/09/26 07:15:17;;;;;;;4.93;4.10;;;14.10;99.90;;;;;;5074117;28;20462;-69
2022/09/26 07:17:44;;;;;;;6.13;4.37;;;14.30;99.90;;;;;;5074133;28;20426;-69
2022/09/26 07:20:12;;;;;;;4.20;3.70;;;14.30;99.90;;;;;;5074228;28;20456;-69
2022/09/26 07:22:38;;;;;;;4.07;3.70;;;14.30;99.90;;;;;;5072810;28;20498;-68
2022/09/26 07:25:04;;;;;;;4.40;3.17;;;14.30;99.90;;;;;;5073846;28;20468;-69
2022/09/26 07:27:30;;;;;;;5.93;3.27;;;14.40;99.90;;;;;;5074050;28;20199;-69
2022/09/26 07:29:57;;;;;;;3.27;2.97;;;14.60;99.90;;;;;;5073890;28;20410;-69
2022/09/26 07:32:23;;;;;;;3.67;3.30;;;14.60;99.90;;;;;;5073988;28;20257;-69
2022/09/26 07:34:49;;;;;;;3.83;3.40;;;14.60;99.90;;;;;;5074063;28;21004;-69
2022/09/26 07:37:16;;;;;;;3.90;3.20;;;14.70;99.90;;;;;;5072359;28;20562;-69
2022/09/26 07:39:41;;;;;;;4.80;3.07;;;14.70;99.90;;;;;;5079263;28;20189;-67
2022/09/26 07:42:07;;;;;;;3.40;3.10;;;14.70;99.90;;;;;;5093803;28;20434;-68
2022/09/26 07:44:33;;;;;;;3.80;3.50;;;14.70;99.90;;;;;;5093643;28;20554;-68
2022/09/26 07:52:27;;;;;;;3.67;2.97;;;14.90;99.90;;;;;;5087602;22;20505;-67
2022/09/26 07:54:53;;;;;;;3.70;3.40;;;15.00;99.90;;;;;;5072829;28;20408;-68
2022/09/26 07:57:18;;;;;;;7.23;3.50;;;14.90;99.90;;;;;;5072372;28;20445;-68
2022/09/26 07:59:44;;;;;;;3.63;3.10;;;15.00;99.90;;;;;;5073527;28;20167;-69
2022/09/26 08:02:24;;;;;;;3.97;3.57;;;15.00;99.90;;;;;;5072923;28;20653;-68
2022/09/26 08:04:49;;;;;;;4.33;3.50;;;14.80;99.90;;;;;;5072267;28;20539;-70
2022/09/26 08:07:15;;;;;;;5.10;3.23;;;14.80;99.90;;;;;;5073066;28;20413;-68
2022/09/26 08:09:41;;;;;;;4.17;3.47;;;14.70;99.90;;;;;;5073069;28;20505;-68
2022/09/26 08:12:07;;;;;;;3.77;3.30;;;14.80;99.90;;;;;;5074026;28;20170;-68
2022/09/26 08:14:32;;;;;;;4.73;3.97;;;15.00;99.90;;;;;;5072602;28;20772;-68
2022/09/26 08:16:58;;;;;;;6.00;3.23;;;15.10;99.90;;;;;;5073323;28;20474;-71
2022/09/26 08:19:24;;;;;;;5.60;2.57;;;15.40;99.90;;;;;;5072482;28;20189;-68
2022/09/26 08:21:50;;;;;;;3.20;2.80;;;15.60;99.90;;;;;;5072587;28;20186;-68
2022/09/26 08:24:15;;;;;;;3.67;3.00;;;15.90;99.90;;;;;;5071035;28;20986;-68
2022/09/26 08:26:41;;;;;;;3.67;2.97;;;16.30;99.90;;;;;;5072639;28;20532;-68
2022/09/26 08:29:11;;;;;;;3.57;3.27;;;16.30;99.90;;;;;;5073114;28;20198;-68
2022/09/26 08:31:37;;;;;;;4.83;3.43;;;16.40;99.90;;;;;;5072116;28;20224;-68
2022/09/26 08:34:04;;;;;;;3.40;3.07;;;16.20;99.90;;;;;;5072644;28;20431;-68
2022/09/26 08:36:31;;;;;;;4.47;2.67;;;16.30;99.90;;;;;;5073461;28;20457;-68
2022/09/26 08:38:58;;;;;;;4.50;3.10;;;16.20;99.90;;;;;;5072296;28;20427;-68
2022/09/26 08:41:59;;;;;;;6.67;3.47;;;16.20;99.90;;;;;;5072621;28;20415;-69
2022/09/26 08:44:40;;;;;;;4.57;3.40;;;16.40;99.90;;;;;;5072689;28;20483;-69
2022/09/26 08:47:39;;;;;;;3.50;3.00;;;16.30;99.90;;;;;;5070740;28;20406;-68
2022/09/26 08:50:33;;;;;;;4.23;3.10;;;15.60;99.90;;;;;;5072438;28;21158;-68
2022/09/26 08:53:05;;;;;;;3.53;3.23;;;15.90;99.90;;;;;;5072282;28;20442;-69
2022/09/26 08:55:36;;;;;;;6.50;4.27;;;16.30;99.90;;;;;;5072490;28;20395;-67
2022/09/26 08:58:07;;;;;;;3.60;3.30;;;16.50;99.90;;;;;;5071638;28;20436;-68
2022/09/26 09:00:36;;;;;;;3.63;3.27;;;16.70;99.90;;;;;;5072748;28;20423;-68
2022/09/26 09:03:08;;;;;;;2.60;2.23;;;16.60;99.90;;;;;;5072053;28;20783;-68
2022/09/26 09:06:10;;;;;;;2.90;2.70;;;16.50;99.90;;;;;;5072632;28;20430;-68
2022/09/26 09:08:39;;;;;;;4.83;3.00;;;16.30;99.90;;;;;;5061706;28;20422;-68
2022/09/26 09:11:20;;;;;;;6.20;3.03;;;15.60;99.90;;;;;;5072787;28;20449;-68
2022/09/26 09:14:18;;;;;;;3.10;2.60;;;15.40;99.90;;;;;;5072164;28;20419;-68
2022/09/26 09:17:28;;;;;;;2.90;2.53;;;15.10;99.90;;;;;;5072650;28;20416;-69
2022/09/26 09:20:13;;;;;;;2.33;2.13;;;15.30;99.90;;;;;;5072770;28;20415;-69
2022/09/26 09:22:57;;;;;;;3.40;3.00;;;15.30;99.90;;;;;;5071141;28;20876;-68
2022/09/26 09:25:47;;;;;;;3.97;2.43;;;15.40;99.90;;;;;;5072051;28;20447;-69
2022/09/26 09:28:24;;;;;;;4.30;2.50;;;15.40;99.90;;;;;;5070988;28;20504;-68
2022/09/26 09:30:58;;;;;;;6.43;2.60;;;15.50;99.90;;;;;;5072929;28;20416;-68
2022/09/26 09:33:46;;;;;;;2.90;2.30;;;15.60;99.90;;;;;;5075916;28;20420;-68
2022/09/26 09:36:18;;;;;;;3.40;2.40;;;15.80;99.90;;;;;;5075852;28;20478;-68
2022/09/26 09:38:47;;;;;;;5.90;2.87;;;15.90;99.90;;;;;;5076145;28;20410;-68
2022/09/26 09:41:23;;;;;;;4.43;2.77;;;15.80;99.90;;;;;;5076361;28;20433;-69
2022/09/26 09:43:53;;;;;;;3.87;3.23;;;15.90;99.90;;;;;;5075208;28;20434;-68
2022/09/26 09:46:22;;;;;;;5.70;3.00;;;15.90;99.90;;;;;;5076032;28;20439;-68
2022/09/26 09:48:51;;;;;;;3.87;3.00;;;16.20;99.90;;;;;;5075917;28;20413;-68
2022/09/26 09:51:35;;;;;;;3.53;2.80;;;16.50;99.90;;;;;;5075627;28;20494;-68
2022/09/26 09:54:35;;;;;;;2.70;2.20;;;16.50;99.90;;;;;;5075581;28;20434;-68
2022/09/26 09:57:16;;;;;;;4.00;2.50;;;16.50;99.90;;;;;;5075844;28;20755;-69
2022/09/26 09:59:41;;;;;;;4.37;2.50;;;16.90;99.90;;;;;;5074855;28;20636;-68
2022/09/26 10:02:35;;;;;;;2.17;1.97;;;17.10;99.90;;;;;;5075228;28;20529;-68
2022/09/26 10:05:22;;;;;;;2.43;2.23;;;16.90;99.90;;;;;;5075689;28;20188;-68
2022/09/26 10:07:49;;;;;;;3.30;2.50;;;16.90;99.90;;;;;;5075768;28;20380;-68
2022/09/26 10:10:24;;;;;;;3.00;2.13;;;17.30;99.90;;;;;;5075368;28;20392;-68
2022/09/26 10:12:50;;;;;;;3.00;2.33;;;17.50;99.90;;;;;;5075128;28;20423;-68
2022/09/26 10:15:26;;;;;;;6.40;2.10;;;17.90;99.90;;;;;;5074990;28;20403;-68
2022/09/26 10:18:05;;;;;;;3.30;1.97;;;17.70;99.90;;;;;;5075228;28;20392;-68
2022/09/26 10:20:36;;;;;;;3.07;2.27;;;17.70;99.90;;;;;;5075191;28;20791;-68
2022/09/26 10:23:16;;;;;;;2.57;2.00;;;17.40;99.90;;;;;;5074085;28;20828;-68
2022/09/26 10:25:47;;;;;;;2.40;1.93;;;17.30;99.90;;;;;;5075165;28;20439;-68
2022/09/26 10:28:42;;;;;;;2.67;1.80;;;17.20;99.90;;;;;;5075226;28;20389;-68
2022/09/26 10:31:09;;;;;;;1.80;1.70;;;17.10;99.90;;;;;;5070887;28;20423;-68
2022/09/26 10:33:41;;;;;;;2.37;1.83;;;17.10;99.90;;;;;;5063489;28;20429;-69
2022/09/26 10:36:31;;;;;;;2.43;1.57;;;17.40;99.90;;;;;;5055266;28;20401;-69
2022/09/26 10:41:44;;;;;;;3.83;3.03;;;17.60;99.90;;;;;;5063259;28;20627;-69
2022/09/26 10:44:26;;;;;;;5.90;2.10;;;17.60;99.90;;;;;;5074752;28;20428;-69
2022/09/26 10:46:56;;;;;;;2.63;1.73;;;17.90;99.90;;;;;;5075366;28;20424;-68
2022/09/26 10:49:30;;;;;;;4.87;2.13;;;17.90;99.90;;;;;;5074287;28;20417;-68
2022/09/26 10:52:15;;;;;;;3.93;2.20;;;17.80;99.90;;;;;;5074366;28;20379;-68
2022/09/26 10:54:56;;;;;;;3.43;1.93;;;17.90;99.90;;;;;;5075092;28;20724;-68
2022/09/26 10:57:28;;;;;;;3.80;1.97;;;18.10;99.90;;;;;;5074679;28;20383;-69
2022/09/26 10:59:55;;;;;;;6.70;2.03;;;18.10;99.90;;;;;;5074622;28;20384;-69
2022/09/26 11:02:24;;;;;;;2.23;1.70;;;18.30;99.90;;;;;;5073429;28;20412;-69
2022/09/26 11:07:44;;;;;;;1.70;1.60;;;17.70;99.90;;;;;;5074605;28;20468;-68
2022/09/26 11:10:13;;;;;;;3.73;1.70;;;18.30;99.90;;;;;;5074154;28;20495;-67
2022/09/26 11:12:56;;;;;;;2.20;1.20;;;18.50;99.90;;;;;;5074117;28;20428;-68
2022/09/26 11:15:22;;;;;;;3.57;1.97;;;18.50;99.90;;;;;;5074770;28;20395;-69
2022/09/26 11:17:51;;;;;;;2.97;1.70;;;18.30;99.90;;;;;;5074266;28;20405;-68
2022/09/26 11:20:22;;;;;;;1.60;1.30;;;18.30;99.90;;;;;;5073745;28;20408;-69
2022/09/26 11:23:17;;;;;;;2.63;1.50;;;18.20;99.90;;;;;;5072859;28;20930;-68
2022/09/26 11:26:05;;;;;;;2.90;1.43;;;18.40;99.90;;;;;;5074115;28;20906;-68
2022/09/26 11:28:45;;;;;;;2.00;1.40;;;19.40;99.90;;;;;;5068779;28;20417;-69
2022/09/26 11:31:41;;;;;;;4.60;1.60;;;19.40;99.90;;;;;;5066238;28;20406;-69
2022/09/26 11:34:12;;;;;;;2.20;1.43;;;19.20;99.90;;;;;;5069310;28;20965;-68
2022/09/26 11:37:00;;;;;;;4.10;1.70;;;19.40;99.90;;;;;;5073269;28;20453;-69
2022/09/26 11:40:03;;;;;;;2.13;1.20;;;21.70;99.50;;;;;;5073968;28;20458;-68
2022/09/26 11:42:45;;;;;;;1.70;1.40;;;22.90;96.40;;;;;;5072511;28;20438;-70
2022/09/26 11:45:39;;;;;;;3.37;1.20;;;24.30;91.20;;;;;;5073291;28;20432;-69
2022/09/26 11:48:17;;;;;;;2.03;1.23;;;24.50;90.40;;;;;;5072588;28;20418;-69
2022/09/26 11:51:03;;;;;;;1.80;1.13;;;24.60;89.70;;;;;;5073100;28;20400;-69
2022/09/26 11:53:32;;;;;;;2.47;1.50;;;23.70;90.00;;;;;;5072003;28;20464;-68
2022/09/26 11:56:14;;;;;;;1.53;0.90;;;24.70;88.40;;;;;;5073619;28;20411;-69
2022/09/26 11:58:58;;;;;;;1.60;1.00;;;26.30;81.40;;;;;;5072121;28;20415;-68
2022/09/26 12:01:38;;;;;;;1.50;1.37;;;25.20;80.00;;;;;;5073503;28;20372;-69
2022/09/26 12:04:29;;;;;;;1.43;1.10;;;24.80;81.40;;;;;;5072114;28;20448;-68
2022/09/26 12:07:11;;;;;;;1.30;1.00;;;23.40;86.30;;;;;;5073244;28;20531;-69
2022/09/26 12:09:39;;;;;;;3.60;1.67;;;22.00;85.50;;;;;;5072600;28;20416;-68
2022/09/26 12:12:36;;;;;;;3.30;1.40;;;20.10;91.30;;;;;;5073227;28;20473;-68
2022/09/26 12:15:20;;;;;;;1.53;1.43;;;18.80;99.50;;;;;;5073218;28;20403;-68
2022/09/26 12:18:12;;;;;;;2.10;1.70;;;18.20;99.90;;;;;;5072412;28;20406;-69
2022/09/26 12:21:10;;;;;;;4.43;1.80;;;18.20;99.90;;;;;;5073319;28;20409;-69
2022/09/26 12:23:57;;;;;;;2.93;1.70;;;17.90;99.90;;;;;;5069550;28;20524;-68
2022/09/26 12:26:42;;;;;;;1.63;1.43;;;17.90;99.90;;;;;;5073725;28;20786;-68
2022/09/26 12:29:19;;;;;;;3.20;1.60;;;19.70;99.90;;;;;;5073229;28;20431;-68
2022/09/26 12:32:02;;;;;;;4.33;2.10;;;22.40;99.90;;;;;;5072849;28;20391;-68
2022/09/26 12:34:39;;;;;;;2.33;1.37;;;25.40;99.10;;;;;;5072962;28;20854;-69
2022/09/26 12:37:38;;;;;;;1.93;1.33;;;25.80;92.30;;;;;;5073353;28;20408;-71
2022/09/26 12:40:13;;;;;;;1.53;1.10;;;26.00;89.90;;;;;;5072065;28;20384;-69
2022/09/26 12:42:55;;;;;;;1.70;1.40;;;25.50;91.50;;;;;;5072686;28;20419;-68
2022/09/26 12:45:29;;;;;;;3.70;1.40;;;24.60;91.20;;;;;;5072781;28;20428;-69
2022/09/26 12:48:05;;;;;;;1.40;1.20;;;23.50;92.00;;;;;;5072678;28;20393;-67
2022/09/26 12:50:46;;;;;;;1.60;1.07;;;23.10;91.90;;;;;;5073088;28;20380;-67
2022/09/26 12:53:23;;;;;;;1.83;1.07;;;22.10;91.80;;;;;;5072514;28;20443;-69
2022/09/26 12:56:09;;;;;;;2.23;1.30;;;21.30;92.60;;;;;;5072233;28;20728;-69
2022/09/26 12:59:14;;;;;;;2.13;1.10;;;21.00;93.50;;;;;;5072817;28;20869;-67
2022/09/26 13:02:04;;;;;;;2.40;1.10;;;20.60;93.10;;;;;;5072783;28;20388;-68
2022/09/26 13:04:30;;;;;;;1.60;1.20;;;19.60;94.20;;;;;;5074119;28;20761;-68
2022/09/26 13:07:33;;;;;;;2.30;1.20;;;19.20;94.50;;;;;;5076534;28;20468;-68
2022/09/26 13:10:08;;;;;;;2.97;1.33;;;;;;;;;;5076091;28;20926;-69
2022/09/26 13:13:02;;;;;;;2.07;1.07;;;18.00;96.60;;;;;;5076825;28;20418;-70
2022/09/26 13:15:42;;;;;;;3.20;1.10;;;17.70;98.10;;;;;;5076636;28;20870;-68
2022/09/26 13:18:12;;;;;;;1.80;1.30;;;17.40;98.40;;;;;;5076579;28;20758;-68
2022/09/26 13:20:42;;;;;;;1.87;1.47;;;17.20;99.00;;;;;;5076782;28;20436;-69
2022/09/26 13:23:37;;;;;;;1.30;1.00;;;17.50;99.90;;;;;;5076357;28;20434;-68
2022/09/26 13:26:16;;;;;;;1.70;1.10;;;17.40;99.70;;;;;;5056844;28;20491;-69
2022/09/26 13:29:12;;;;;;;0.93;0.70;;;17.60;99.90;;;;;;5057219;28;20439;-70
2022/09/26 13:31:54;;;;;;;2.03;0.77;;;17.30;97.20;;;;;;5056333;28;20751;-69
2022/09/26 13:34:26;;;;;;;1.43;0.80;;;17.40;98.20;;;;;;5056824;28;20465;-69
2022/09/26 13:36:54;;;;;;;1.63;1.00;;;17.70;98.10;;;;;;5056022;28;20400;-68